Airfield :
LOGIN :

Register | Disclaimer

   EN    FR    IT 

 










Legend :    VFR   Marginal VFR   IFR   Intensive IFR   Very Intensive IFR
Visi :
Ceiling :
>= 8 km
>= 3000ft
5 to 8 km
1000 to 3000 ft
1500m to 5 km
500 to 1000 ft
800 to 1500m
200 to 500 ft
< 800m
< 200 ft
Symbols :   Thunderstorms  Fog  Heavy snow  Heavy precipitations  Wind > 20 kt
SIGMETs :     Misc.  Thunderstorms  Icing  Turbulence  Mountain Waves  Volcanic Ashes






- Airport Elevation : 978 ft
- IATA code : LNZ


LOWL - Linz

CURRENT METAR :
  • 211720Z AUTO 24020G32KT 200V260 9999 -SHRA FEW011 BKN016 16/14 Q1005 RESHRA TEMPO TSRA BKN014

EXPIRED METARs :
  • 211650Z AUTO 11008KT 070V140 9999 FEW015 BKN016 19/16 Q1005 TEMPO TSRA
  • 211620Z AUTO 09013KT 9999 -SHRA FEW016 BKN080 19/16 Q1004 TEMPO FM1700 TSRA
  • 211550Z AUTO 09016KT 9999 FEW016 FEW040CB 19/16 Q1004 TEMPO FM1700 TSRA
  • 211520Z AUTO 09016KT 070V140 9999 FEW018 FEW040CB SCT080 20/16 Q1004 TEMPO FM1700 TSRA
  • 211450Z AUTO 10017KT 9999 FEW018 FEW040CB SCT080 20/16 Q1004 NOSIG
  • 211420Z AUTO 10015G28KT 9999 FEW018 SCT070 20/16 Q1005 NOSIG
  • 211350Z AUTO 10017KT 070V130 9999 FEW019 20/16 Q1005 NOSIG
  • 211320Z AUTO 09018G28KT 060V120 9999 FEW020 21/17 Q1005 NOSIG
  • 211250Z AUTO 10017KT 070V130 9999 SCT070 21/16 Q1005 NOSIG

TAF TAF LOWL
Valid from the 21 at 18:00 until the 22 at 18:00 UTC


211715Z 2118/2218 27012KT 9999 BKN030 TX19/2214Z TN14/2204Z
TEMPO 2118/2124 TSRA BKN014 SCT030CB
PROB30
TEMPO 2118/2120 VRB15G25KT 2500 +TSRA
TEMPO 2200/2207 -SHRA
PROB40
TEMPO 2207/2209 BKN006
PROB40
TEMPO 2213/2216 29015G25KT SHRA



MET'MAP, your aeronautical weather chart ! - Copyright ORBIFLY December 2007 - Disclaimer

ORBIFLY MET'MAP TEAM :

Programming & Development : Alexandra Zaïnal
Original concept : Baudouin d'Aumeries
Technical & hardware support : Manuel Goepfert
Assistance : Marc-Olivier Méhu




SOURCES & CREDITS :

   NOAA